sensor_id;sensor_type;location;lat;lon;timestamp;P1;durP1;ratioP1;P2;durP2;ratioP2
27985;SDS011;15453;53.692;10.168;2023-02-08T00:00:21;29.48;;;17.88;;
27985;SDS011;15453;53.692;10.168;2023-02-08T00:02:48;29.25;;;17.52;;
27985;SDS011;15453;53.692;10.168;2023-02-08T00:05:13;29.42;;;16.25;;
27985;SDS011;15453;53.692;10.168;2023-02-08T00:07:39;29.23;;;16.63;;
27985;SDS011;15453;53.692;10.168;2023-02-08T00:10:04;24.33;;;14.75;;
27985;SDS011;15453;53.692;10.168;2023-02-08T00:12:31;29.00;;;16.50;;
27985;SDS011;15453;53.692;10.168;2023-02-08T00:14:57;33.40;;;17.92;;
27985;SDS011;15453;53.692;10.168;2023-02-08T00:17:22;30.40;;;17.02;;
27985;SDS011;15453;53.692;10.168;2023-02-08T00:19:48;29.48;;;16.60;;
27985;SDS011;15453;53.692;10.168;2023-02-08T00:22:13;29.48;;;17.02;;
27985;SDS011;15453;53.692;10.168;2023-02-08T00:24:38;33.40;;;17.77;;
27985;SDS011;15453;53.692;10.168;2023-02-08T00:27:03;25.83;;;15.20;;
27985;SDS011;15453;53.692;10.168;2023-02-08T00:29:29;35.80;;;16.70;;
27985;SDS011;15453;53.692;10.168;2023-02-08T00:31:54;30.77;;;17.35;;
27985;SDS011;15453;53.692;10.168;2023-02-08T00:34:19;30.75;;;16.58;;
27985;SDS011;15453;53.692;10.168;2023-02-08T00:36:44;28.20;;;16.42;;
27985;SDS011;15453;53.692;10.168;2023-02-08T00:39:09;27.20;;;15.57;;
27985;SDS011;15453;53.692;10.168;2023-02-08T00:41:35;28.00;;;15.93;;
27985;SDS011;15453;53.692;10.168;2023-02-08T00:44:00;31.17;;;17.05;;
27985;SDS011;15453;53.692;10.168;2023-02-08T00:46:25;26.25;;;15.32;;
27985;SDS011;15453;53.692;10.168;2023-02-08T00:48:51;37.78;;;17.65;;
27985;SDS011;15453;53.692;10.168;2023-02-08T00:51:16;32.30;;;17.27;;
27985;SDS011;15453;53.692;10.168;2023-02-08T00:53:42;28.08;;;16.27;;
27985;SDS011;15453;53.692;10.168;2023-02-08T00:56:09;28.33;;;15.73;;
27985;SDS011;15453;53.692;10.168;2023-02-08T00:58:36;28.17;;;16.88;;
27985;SDS011;15453;53.692;10.168;2023-02-08T01:01:02;27.42;;;15.70;;
27985;SDS011;15453;53.692;10.168;2023-02-08T01:03:29;27.60;;;14.88;;
27985;SDS011;15453;53.692;10.168;2023-02-08T01:06:01;28.23;;;15.88;;
27985;SDS011;15453;53.692;10.168;2023-02-08T01:08:28;27.65;;;15.63;;
27985;SDS011;15453;53.692;10.168;2023-02-08T01:11:00;26.55;;;15.70;;
27985;SDS011;15453;53.692;10.168;2023-02-08T01:13:27;28.00;;;16.02;;
27985;SDS011;15453;53.692;10.168;2023-02-08T01:15:52;29.10;;;16.33;;
27985;SDS011;15453;53.692;10.168;2023-02-08T01:18:17;29.10;;;16.05;;
27985;SDS011;15453;53.692;10.168;2023-02-08T01:20:42;30.55;;;17.45;;
27985;SDS011;15453;53.692;10.168;2023-02-08T01:23:08;28.55;;;16.70;;
27985;SDS011;15453;53.692;10.168;2023-02-08T01:25:33;25.75;;;15.10;;
27985;SDS011;15453;53.692;10.168;2023-02-08T01:27:58;30.67;;;16.73;;
27985;SDS011;15453;53.692;10.168;2023-02-08T01:30:24;32.95;;;17.42;;
27985;SDS011;15453;53.692;10.168;2023-02-08T01:32:49;24.00;;;14.48;;
27985;SDS011;15453;53.692;10.168;2023-02-08T01:35:15;27.13;;;15.80;;
27985;SDS011;15453;53.692;10.168;2023-02-08T01:37:40;30.45;;;17.45;;
27985;SDS011;15453;53.692;10.168;2023-02-08T01:40:05;24.92;;;14.73;;
27985;SDS011;15453;53.692;10.168;2023-02-08T01:42:31;27.38;;;15.80;;
27985;SDS011;15453;53.692;10.168;2023-02-08T01:47:44;27.60;;;15.52;;
27985;SDS011;15453;53.692;10.168;2023-02-08T01:50:13;28.88;;;16.30;;
27985;SDS011;15453;53.692;10.168;2023-02-08T01:52:41;30.02;;;16.90;;
27985;SDS011;15453;53.692;10.168;2023-02-08T01:55:14;30.02;;;17.35;;
27985;SDS011;15453;53.692;10.168;2023-02-08T01:57:42;29.50;;;16.10;;
27985;SDS011;15453;53.692;10.168;2023-02-08T02:00:11;30.25;;;16.40;;
27985;SDS011;15453;53.692;10.168;2023-02-08T02:02:40;28.63;;;16.02;;
27985;SDS011;15453;53.692;10.168;2023-02-08T02:05:07;31.30;;;16.95;;
27985;SDS011;15453;53.692;10.168;2023-02-08T02:07:32;30.40;;;16.90;;
27985;SDS011;15453;53.692;10.168;2023-02-08T02:12:54;35.28;;;17.95;;
27985;SDS011;15453;53.692;10.168;2023-02-08T02:15:22;34.70;;;17.23;;
27985;SDS011;15453;53.692;10.168;2023-02-08T02:17:47;29.50;;;16.70;;
27985;SDS011;15453;53.692;10.168;2023-02-08T02:29:04;26.60;;;15.35;;
27985;SDS011;15453;53.692;10.168;2023-02-08T02:31:48;35.15;;;17.00;;
27985;SDS011;15453;53.692;10.168;2023-02-08T02:39:50;30.48;;;16.02;;
27985;SDS011;15453;53.692;10.168;2023-02-08T02:51:47;32.42;;;17.08;;
27985;SDS011;15453;53.692;10.168;2023-02-08T02:54:23;30.50;;;16.70;;
27985;SDS011;15453;53.692;10.168;2023-02-08T02:56:51;32.53;;;17.40;;
27985;SDS011;15453;53.692;10.168;2023-02-08T02:59:20;28.77;;;16.30;;
27985;SDS011;15453;53.692;10.168;2023-02-08T03:01:47;33.53;;;17.77;;
27985;SDS011;15453;53.692;10.168;2023-02-08T03:04:45;30.45;;;16.75;;
27985;SDS011;15453;53.692;10.168;2023-02-08T03:07:14;32.70;;;16.35;;
27985;SDS011;15453;53.692;10.168;2023-02-08T03:15:48;31.75;;;17.55;;
27985;SDS011;15453;53.692;10.168;2023-02-08T03:18:35;30.48;;;17.52;;
27985;SDS011;15453;53.692;10.168;2023-02-08T03:21:08;30.17;;;16.33;;
27985;SDS011;15453;53.692;10.168;2023-02-08T03:23:45;29.83;;;16.67;;
27985;SDS011;15453;53.692;10.168;2023-02-08T03:34:22;32.35;;;17.33;;
27985;SDS011;15453;53.692;10.168;2023-02-08T03:36:54;31.58;;;17.20;;
27985;SDS011;15453;53.692;10.168;2023-02-08T03:39:23;33.28;;;17.98;;
27985;SDS011;15453;53.692;10.168;2023-02-08T03:41:51;34.22;;;18.63;;
27985;SDS011;15453;53.692;10.168;2023-02-08T03:44:22;30.20;;;16.80;;
27985;SDS011;15453;53.692;10.168;2023-02-08T03:46:52;36.33;;;17.90;;
27985;SDS011;15453;53.692;10.168;2023-02-08T03:49:22;31.67;;;17.20;;
27985;SDS011;15453;53.692;10.168;2023-02-08T03:51:51;32.28;;;17.83;;
27985;SDS011;15453;53.692;10.168;2023-02-08T03:54:22;31.27;;;17.90;;
27985;SDS011;15453;53.692;10.168;2023-02-08T03:59:41;34.55;;;18.27;;
27985;SDS011;15453;53.692;10.168;2023-02-08T04:02:12;35.00;;;18.50;;
27985;SDS011;15453;53.692;10.168;2023-02-08T04:04:42;33.78;;;18.35;;
27985;SDS011;15453;53.692;10.168;2023-02-08T04:07:11;35.85;;;18.70;;
27985;SDS011;15453;53.692;10.168;2023-02-08T04:09:36;33.92;;;17.77;;
27985;SDS011;15453;53.692;10.168;2023-02-08T04:12:02;36.55;;;19.05;;
27985;SDS011;15453;53.692;10.168;2023-02-08T04:14:28;34.88;;;20.00;;
27985;SDS011;15453;53.692;10.168;2023-02-08T04:16:53;35.67;;;19.83;;
27985;SDS011;15453;53.692;10.168;2023-02-08T04:19:18;35.17;;;18.75;;
27985;SDS011;15453;53.692;10.168;2023-02-08T04:21:44;32.33;;;17.40;;
27985;SDS011;15453;53.692;10.168;2023-02-08T04:24:09;33.25;;;18.65;;
27985;SDS011;15453;53.692;10.168;2023-02-08T04:26:34;35.75;;;19.27;;
27985;SDS011;15453;53.692;10.168;2023-02-08T04:29:00;34.33;;;18.80;;
27985;SDS011;15453;53.692;10.168;2023-02-08T04:31:25;34.50;;;19.58;;
27985;SDS011;15453;53.692;10.168;2023-02-08T04:33:51;32.88;;;18.88;;
27985;SDS011;15453;53.692;10.168;2023-02-08T04:36:16;33.85;;;19.10;;
27985;SDS011;15453;53.692;10.168;2023-02-08T04:38:41;38.22;;;20.10;;
27985;SDS011;15453;53.692;10.168;2023-02-08T04:41:06;33.13;;;18.48;;
27985;SDS011;15453;53.692;10.168;2023-02-08T04:43:32;32.53;;;18.52;;
27985;SDS011;15453;53.692;10.168;2023-02-08T04:45:57;32.75;;;17.77;;
27985;SDS011;15453;53.692;10.168;2023-02-08T04:48:23;34.50;;;18.77;;
27985;SDS011;15453;53.692;10.168;2023-02-08T04:50:48;35.70;;;18.65;;
27985;SDS011;15453;53.692;10.168;2023-02-08T04:53:13;35.67;;;19.13;;
27985;SDS011;15453;53.692;10.168;2023-02-08T04:55:38;37.63;;;19.10;;
27985;SDS011;15453;53.692;10.168;2023-02-08T04:58:04;30.13;;;17.27;;
27985;SDS011;15453;53.692;10.168;2023-02-08T05:00:29;38.00;;;19.02;;
27985;SDS011;15453;53.692;10.168;2023-02-08T05:02:55;34.88;;;18.35;;
27985;SDS011;15453;53.692;10.168;2023-02-08T05:05:21;33.20;;;18.08;;
27985;SDS011;15453;53.692;10.168;2023-02-08T05:07:47;35.50;;;18.70;;
27985;SDS011;15453;53.692;10.168;2023-02-08T05:10:12;36.95;;;18.83;;
27985;SDS011;15453;53.692;10.168;2023-02-08T05:12:38;35.72;;;19.42;;
27985;SDS011;15453;53.692;10.168;2023-02-08T05:15:04;34.70;;;18.58;;
27985;SDS011;15453;53.692;10.168;2023-02-08T05:17:29;35.38;;;18.85;;
27985;SDS011;15453;53.692;10.168;2023-02-08T05:19:54;36.13;;;18.55;;
27985;SDS011;15453;53.692;10.168;2023-02-08T05:22:20;37.47;;;18.92;;
27985;SDS011;15453;53.692;10.168;2023-02-08T05:24:45;37.13;;;18.52;;
27985;SDS011;15453;53.692;10.168;2023-02-08T05:27:10;36.40;;;19.92;;
27985;SDS011;15453;53.692;10.168;2023-02-08T05:29:35;41.20;;;20.42;;
27985;SDS011;15453;53.692;10.168;2023-02-08T05:32:01;34.85;;;19.42;;
27985;SDS011;15453;53.692;10.168;2023-02-08T05:34:26;39.90;;;19.50;;
27985;SDS011;15453;53.692;10.168;2023-02-08T05:36:51;46.00;;;22.92;;
27985;SDS011;15453;53.692;10.168;2023-02-08T05:39:17;42.40;;;21.40;;
27985;SDS011;15453;53.692;10.168;2023-02-08T05:41:42;43.67;;;22.58;;
27985;SDS011;15453;53.692;10.168;2023-02-08T05:44:07;38.65;;;21.10;;
27985;SDS011;15453;53.692;10.168;2023-02-08T05:46:33;42.28;;;19.92;;
27985;SDS011;15453;53.692;10.168;2023-02-08T05:48:58;39.88;;;20.33;;
27985;SDS011;15453;53.692;10.168;2023-02-08T05:51:23;37.08;;;20.10;;
27985;SDS011;15453;53.692;10.168;2023-02-08T05:53:48;39.40;;;20.20;;
27985;SDS011;15453;53.692;10.168;2023-02-08T05:56:14;35.08;;;19.13;;
27985;SDS011;15453;53.692;10.168;2023-02-08T05:58:39;42.15;;;20.58;;
27985;SDS011;15453;53.692;10.168;2023-02-08T06:01:08;36.97;;;18.75;;
27985;SDS011;15453;53.692;10.168;2023-02-08T06:03:34;35.72;;;18.90;;
27985;SDS011;15453;53.692;10.168;2023-02-08T06:06:00;38.35;;;19.45;;
27985;SDS011;15453;53.692;10.168;2023-02-08T06:08:26;40.03;;;20.10;;
27985;SDS011;15453;53.692;10.168;2023-02-08T06:10:51;40.72;;;20.90;;
27985;SDS011;15453;53.692;10.168;2023-02-08T06:13:16;38.25;;;20.17;;
27985;SDS011;15453;53.692;10.168;2023-02-08T06:15:42;41.05;;;20.75;;
27985;SDS011;15453;53.692;10.168;2023-02-08T06:18:07;41.40;;;21.77;;
27985;SDS011;15453;53.692;10.168;2023-02-08T06:20:33;44.15;;;21.88;;
27985;SDS011;15453;53.692;10.168;2023-02-08T06:22:58;42.00;;;19.73;;
27985;SDS011;15453;53.692;10.168;2023-02-08T06:25:24;41.97;;;21.92;;
27985;SDS011;15453;53.692;10.168;2023-02-08T06:27:49;42.30;;;22.17;;
27985;SDS011;15453;53.692;10.168;2023-02-08T06:30:14;41.42;;;21.58;;
27985;SDS011;15453;53.692;10.168;2023-02-08T06:32:39;42.28;;;22.13;;
27985;SDS011;15453;53.692;10.168;2023-02-08T06:35:05;43.97;;;22.67;;
27985;SDS011;15453;53.692;10.168;2023-02-08T06:37:31;40.05;;;21.02;;
27985;SDS011;15453;53.692;10.168;2023-02-08T06:39:56;38.25;;;20.85;;
27985;SDS011;15453;53.692;10.168;2023-02-08T06:42:21;43.60;;;22.63;;
27985;SDS011;15453;53.692;10.168;2023-02-08T06:44:46;36.92;;;19.70;;
27985;SDS011;15453;53.692;10.168;2023-02-08T06:47:14;43.85;;;21.92;;
27985;SDS011;15453;53.692;10.168;2023-02-08T06:49:39;40.75;;;20.83;;
27985;SDS011;15453;53.692;10.168;2023-02-08T06:52:05;43.10;;;21.52;;
27985;SDS011;15453;53.692;10.168;2023-02-08T06:54:31;43.53;;;20.85;;
27985;SDS011;15453;53.692;10.168;2023-02-08T06:56:56;41.13;;;21.38;;
27985;SDS011;15453;53.692;10.168;2023-02-08T06:59:21;43.20;;;22.33;;
27985;SDS011;15453;53.692;10.168;2023-02-08T07:01:46;42.97;;;21.85;;
27985;SDS011;15453;53.692;10.168;2023-02-08T07:04:11;44.30;;;19.55;;
27985;SDS011;15453;53.692;10.168;2023-02-08T07:06:37;42.83;;;20.08;;
27985;SDS011;15453;53.692;10.168;2023-02-08T07:09:02;40.03;;;20.25;;
27985;SDS011;15453;53.692;10.168;2023-02-08T07:11:28;43.10;;;21.33;;
27985;SDS011;15453;53.692;10.168;2023-02-08T07:13:54;45.10;;;22.17;;
27985;SDS011;15453;53.692;10.168;2023-02-08T07:16:19;43.72;;;22.52;;
27985;SDS011;15453;53.692;10.168;2023-02-08T07:18:44;45.88;;;22.58;;
27985;SDS011;15453;53.692;10.168;2023-02-08T07:21:10;48.50;;;24.02;;
27985;SDS011;15453;53.692;10.168;2023-02-08T07:23:36;45.20;;;21.92;;
27985;SDS011;15453;53.692;10.168;2023-02-08T07:26:04;43.72;;;22.30;;
27985;SDS011;15453;53.692;10.168;2023-02-08T07:28:31;47.53;;;22.13;;
27985;SDS011;15453;53.692;10.168;2023-02-08T07:30:56;42.58;;;22.15;;
27985;SDS011;15453;53.692;10.168;2023-02-08T07:33:21;49.38;;;23.42;;
27985;SDS011;15453;53.692;10.168;2023-02-08T07:35:47;46.70;;;23.15;;
27985;SDS011;15453;53.692;10.168;2023-02-08T07:38:12;45.42;;;23.17;;
27985;SDS011;15453;53.692;10.168;2023-02-08T07:40:38;49.50;;;23.40;;
27985;SDS011;15453;53.692;10.168;2023-02-08T07:43:03;49.78;;;23.52;;
27985;SDS011;15453;53.692;10.168;2023-02-08T07:45:29;53.00;;;25.23;;
27985;SDS011;15453;53.692;10.168;2023-02-08T07:47:54;52.45;;;25.55;;
27985;SDS011;15453;53.692;10.168;2023-02-08T07:50:19;45.75;;;22.15;;
27985;SDS011;15453;53.692;10.168;2023-02-08T07:52:44;52.05;;;23.92;;
27985;SDS011;15453;53.692;10.168;2023-02-08T07:55:11;47.55;;;23.85;;
27985;SDS011;15453;53.692;10.168;2023-02-08T07:57:44;54.42;;;25.75;;
27985;SDS011;15453;53.692;10.168;2023-02-08T08:00:11;47.85;;;23.73;;
27985;SDS011;15453;53.692;10.168;2023-02-08T08:02:37;53.90;;;24.80;;
27985;SDS011;15453;53.692;10.168;2023-02-08T08:05:03;53.65;;;25.05;;
27985;SDS011;15453;53.692;10.168;2023-02-08T08:07:29;49.67;;;25.50;;
27985;SDS011;15453;53.692;10.168;2023-02-08T08:09:54;47.97;;;24.65;;
27985;SDS011;15453;53.692;10.168;2023-02-08T08:12:19;48.28;;;23.65;;
27985;SDS011;15453;53.692;10.168;2023-02-08T08:14:45;50.40;;;25.60;;
27985;SDS011;15453;53.692;10.168;2023-02-08T08:17:10;51.05;;;25.63;;
27985;SDS011;15453;53.692;10.168;2023-02-08T08:19:36;49.33;;;24.65;;
27985;SDS011;15453;53.692;10.168;2023-02-08T08:22:01;53.10;;;25.88;;
27985;SDS011;15453;53.692;10.168;2023-02-08T08:24:26;50.90;;;25.92;;
27985;SDS011;15453;53.692;10.168;2023-02-08T08:26:51;53.25;;;25.48;;
27985;SDS011;15453;53.692;10.168;2023-02-08T08:29:17;53.33;;;25.17;;
27985;SDS011;15453;53.692;10.168;2023-02-08T08:31:42;58.90;;;28.67;;
27985;SDS011;15453;53.692;10.168;2023-02-08T08:34:08;54.40;;;27.50;;
27985;SDS011;15453;53.692;10.168;2023-02-08T08:36:33;54.13;;;26.83;;
27985;SDS011;15453;53.692;10.168;2023-02-08T08:38:59;55.00;;;26.63;;
27985;SDS011;15453;53.692;10.168;2023-02-08T08:41:24;55.67;;;26.75;;
27985;SDS011;15453;53.692;10.168;2023-02-08T08:43:51;49.00;;;24.27;;
27985;SDS011;15453;53.692;10.168;2023-02-08T08:46:16;50.78;;;25.40;;
27985;SDS011;15453;53.692;10.168;2023-02-08T08:48:42;49.55;;;24.63;;
27985;SDS011;15453;53.692;10.168;2023-02-08T08:51:07;57.10;;;26.77;;
27985;SDS011;15453;53.692;10.168;2023-02-08T08:53:32;52.30;;;25.75;;
27985;SDS011;15453;53.692;10.168;2023-02-08T08:55:58;55.38;;;27.42;;
27985;SDS011;15453;53.692;10.168;2023-02-08T08:58:24;53.58;;;25.92;;
27985;SDS011;15453;53.692;10.168;2023-02-08T09:00:49;51.17;;;25.63;;
27985;SDS011;15453;53.692;10.168;2023-02-08T09:03:14;48.10;;;23.73;;
27985;SDS011;15453;53.692;10.168;2023-02-08T09:05:39;49.30;;;25.20;;
27985;SDS011;15453;53.692;10.168;2023-02-08T09:08:05;43.78;;;22.42;;
27985;SDS011;15453;53.692;10.168;2023-02-08T09:10:30;41.67;;;21.92;;
27985;SDS011;15453;53.692;10.168;2023-02-08T09:12:56;44.33;;;23.27;;
27985;SDS011;15453;53.692;10.168;2023-02-08T09:15:22;47.90;;;24.08;;
27985;SDS011;15453;53.692;10.168;2023-02-08T09:17:47;47.58;;;23.13;;
27985;SDS011;15453;53.692;10.168;2023-02-08T09:20:12;41.38;;;21.10;;
27985;SDS011;15453;53.692;10.168;2023-02-08T09:22:37;44.78;;;22.88;;
27985;SDS011;15453;53.692;10.168;2023-02-08T09:25:03;45.67;;;23.33;;
27985;SDS011;15453;53.692;10.168;2023-02-08T09:27:28;40.92;;;21.67;;
27985;SDS011;15453;53.692;10.168;2023-02-08T09:29:54;44.42;;;22.45;;
27985;SDS011;15453;53.692;10.168;2023-02-08T09:32:19;40.45;;;21.77;;
27985;SDS011;15453;53.692;10.168;2023-02-08T09:34:46;44.67;;;22.13;;
27985;SDS011;15453;53.692;10.168;2023-02-08T09:37:11;45.78;;;24.48;;
27985;SDS011;15453;53.692;10.168;2023-02-08T09:39:36;45.92;;;23.30;;
27985;SDS011;15453;53.692;10.168;2023-02-08T09:42:35;42.22;;;22.00;;
27985;SDS011;15453;53.692;10.168;2023-02-08T09:45:22;39.35;;;21.08;;
27985;SDS011;15453;53.692;10.168;2023-02-08T09:48:12;39.45;;;20.05;;
27985;SDS011;15453;53.692;10.168;2023-02-08T09:51:31;42.78;;;20.38;;
27985;SDS011;15453;53.692;10.168;2023-02-08T09:53:35;43.55;;;20.90;;
27985;SDS011;15453;53.692;10.168;2023-02-08T10:01:05;41.13;;;21.00;;
27985;SDS011;15453;53.692;10.168;2023-02-08T10:03:37;39.10;;;20.08;;
27985;SDS011;15453;53.692;10.168;2023-02-08T10:06:06;42.15;;;20.75;;
27985;SDS011;15453;53.692;10.168;2023-02-08T10:08:33;39.67;;;20.65;;
27985;SDS011;15453;53.692;10.168;2023-02-08T10:11:06;38.00;;;19.58;;
27985;SDS011;15453;53.692;10.168;2023-02-08T10:24:42;42.53;;;20.95;;
27985;SDS011;15453;53.692;10.168;2023-02-08T10:27:17;44.90;;;21.40;;
27985;SDS011;15453;53.692;10.168;2023-02-08T10:29:53;45.80;;;21.52;;
27985;SDS011;15453;53.692;10.168;2023-02-08T10:35:43;47.30;;;22.77;;
27985;SDS011;15453;53.692;10.168;2023-02-08T10:37:51;41.70;;;21.90;;
27985;SDS011;15453;53.692;10.168;2023-02-08T10:42:43;46.50;;;22.83;;
27985;SDS011;15453;53.692;10.168;2023-02-08T10:47:51;41.28;;;20.98;;
27985;SDS011;15453;53.692;10.168;2023-02-08T10:52:53;40.10;;;20.50;;
27985;SDS011;15453;53.692;10.168;2023-02-08T10:55:19;43.65;;;21.42;;
27985;SDS011;15453;53.692;10.168;2023-02-08T10:57:46;39.58;;;19.88;;
27985;SDS011;15453;53.692;10.168;2023-02-08T11:02:42;44.95;;;22.38;;
27985;SDS011;15453;53.692;10.168;2023-02-08T11:05:09;41.33;;;20.73;;
27985;SDS011;15453;53.692;10.168;2023-02-08T11:07:36;42.25;;;20.55;;
27985;SDS011;15453;53.692;10.168;2023-02-08T11:10:35;40.15;;;20.85;;
27985;SDS011;15453;53.692;10.168;2023-02-08T11:15:44;40.83;;;20.38;;
27985;SDS011;15453;53.692;10.168;2023-02-08T11:18:17;40.38;;;20.05;;
27985;SDS011;15453;53.692;10.168;2023-02-08T11:20:47;44.55;;;21.05;;
27985;SDS011;15453;53.692;10.168;2023-02-08T11:23:33;38.38;;;19.13;;
27985;SDS011;15453;53.692;10.168;2023-02-08T11:26:20;43.63;;;20.67;;
27985;SDS011;15453;53.692;10.168;2023-02-08T11:34:19;36.08;;;18.33;;
27985;SDS011;15453;53.692;10.168;2023-02-08T11:36:49;36.50;;;17.77;;
27985;SDS011;15453;53.692;10.168;2023-02-08T11:39:21;36.20;;;17.30;;
27985;SDS011;15453;53.692;10.168;2023-02-08T11:41:50;34.60;;;17.38;;
27985;SDS011;15453;53.692;10.168;2023-02-08T11:44:31;31.20;;;16.90;;
27985;SDS011;15453;53.692;10.168;2023-02-08T11:46:59;30.02;;;15.80;;
27985;SDS011;15453;53.692;10.168;2023-02-08T11:49:37;34.20;;;16.73;;
27985;SDS011;15453;53.692;10.168;2023-02-08T11:52:05;30.35;;;15.15;;
27985;SDS011;15453;53.692;10.168;2023-02-08T11:54:50;29.92;;;16.05;;
27985;SDS011;15453;53.692;10.168;2023-02-08T11:57:21;28.80;;;15.13;;
27985;SDS011;15453;53.692;10.168;2023-02-08T11:59:48;27.98;;;14.52;;
27985;SDS011;15453;53.692;10.168;2023-02-08T12:04:53;25.75;;;12.93;;
27985;SDS011;15453;53.692;10.168;2023-02-08T12:07:41;24.88;;;12.52;;
27985;SDS011;15453;53.692;10.168;2023-02-08T12:16:11;23.70;;;12.20;;
27985;SDS011;15453;53.692;10.168;2023-02-08T12:19:05;27.83;;;13.45;;
27985;SDS011;15453;53.692;10.168;2023-02-08T12:22:04;27.23;;;14.57;;
27985;SDS011;15453;53.692;10.168;2023-02-08T12:33:05;30.30;;;15.35;;
27985;SDS011;15453;53.692;10.168;2023-02-08T12:52:44;27.55;;;14.15;;
27985;SDS011;15453;53.692;10.168;2023-02-08T12:55:24;29.17;;;14.48;;
27985;SDS011;15453;53.692;10.168;2023-02-08T12:57:53;28.70;;;14.80;;
27985;SDS011;15453;53.692;10.168;2023-02-08T13:00:27;26.98;;;15.18;;
27985;SDS011;15453;53.692;10.168;2023-02-08T13:03:11;27.15;;;14.00;;
27985;SDS011;15453;53.692;10.168;2023-02-08T13:05:41;25.80;;;13.68;;
27985;SDS011;15453;53.692;10.168;2023-02-08T13:08:14;26.67;;;13.40;;
27985;SDS011;15453;53.692;10.168;2023-02-08T13:10:57;26.17;;;12.82;;
27985;SDS011;15453;53.692;10.168;2023-02-08T13:13:29;26.80;;;13.40;;
27985;SDS011;15453;53.692;10.168;2023-02-08T13:16:02;25.83;;;13.23;;
27985;SDS011;15453;53.692;10.168;2023-02-08T13:18:35;28.10;;;13.15;;
27985;SDS011;15453;53.692;10.168;2023-02-08T13:21:15;26.27;;;13.13;;
27985;SDS011;15453;53.692;10.168;2023-02-08T13:23:45;22.63;;;11.95;;
27985;SDS011;15453;53.692;10.168;2023-02-08T13:26:14;27.42;;;13.48;;
27985;SDS011;15453;53.692;10.168;2023-02-08T13:28:49;24.25;;;12.55;;
27985;SDS011;15453;53.692;10.168;2023-02-08T13:31:19;25.27;;;12.35;;
27985;SDS011;15453;53.692;10.168;2023-02-08T13:36:55;26.48;;;13.07;;
27985;SDS011;15453;53.692;10.168;2023-02-08T13:41:56;23.92;;;11.57;;
27985;SDS011;15453;53.692;10.168;2023-02-08T13:44:33;22.80;;;11.25;;
27985;SDS011;15453;53.692;10.168;2023-02-08T13:47:01;20.17;;;10.43;;
27985;SDS011;15453;53.692;10.168;2023-02-08T13:49:39;18.67;;;9.80;;
27985;SDS011;15453;53.692;10.168;2023-02-08T13:57:55;19.13;;;9.77;;
27985;SDS011;15453;53.692;10.168;2023-02-08T14:00:23;19.05;;;10.27;;
27985;SDS011;15453;53.692;10.168;2023-02-08T14:03:00;19.60;;;10.32;;
27985;SDS011;15453;53.692;10.168;2023-02-08T14:05:50;19.13;;;9.48;;
27985;SDS011;15453;53.692;10.168;2023-02-08T14:08:22;19.05;;;9.82;;
27985;SDS011;15453;53.692;10.168;2023-02-08T14:14:12;19.90;;;9.13;;
27985;SDS011;15453;53.692;10.168;2023-02-08T14:16:42;17.08;;;8.90;;
27985;SDS011;15453;53.692;10.168;2023-02-08T14:19:20;17.92;;;9.25;;
27985;SDS011;15453;53.692;10.168;2023-02-08T14:21:49;20.10;;;9.38;;
27985;SDS011;15453;53.692;10.168;2023-02-08T14:24:27;17.58;;;9.35;;
27985;SDS011;15453;53.692;10.168;2023-02-08T14:27:05;16.52;;;9.07;;
27985;SDS011;15453;53.692;10.168;2023-02-08T14:29:33;20.35;;;10.00;;
27985;SDS011;15453;53.692;10.168;2023-02-08T14:31:59;17.52;;;8.73;;
27985;SDS011;15453;53.692;10.168;2023-02-08T14:34:27;21.77;;;9.57;;
27985;SDS011;15453;53.692;10.168;2023-02-08T14:39:43;21.05;;;10.00;;
27985;SDS011;15453;53.692;10.168;2023-02-08T14:42:09;18.80;;;9.38;;
27985;SDS011;15453;53.692;10.168;2023-02-08T14:47:03;20.00;;;10.15;;
27985;SDS011;15453;53.692;10.168;2023-02-08T14:49:41;17.73;;;9.15;;
27985;SDS011;15453;53.692;10.168;2023-02-08T14:52:18;19.70;;;9.55;;
27985;SDS011;15453;53.692;10.168;2023-02-08T14:54:48;20.63;;;10.10;;
27985;SDS011;15453;53.692;10.168;2023-02-08T14:57:28;22.67;;;9.85;;
27985;SDS011;15453;53.692;10.168;2023-02-08T14:59:58;20.58;;;10.48;;
27985;SDS011;15453;53.692;10.168;2023-02-08T15:02:26;19.63;;;10.18;;
27985;SDS011;15453;53.692;10.168;2023-02-08T15:04:55;22.02;;;10.45;;
27985;SDS011;15453;53.692;10.168;2023-02-08T15:09:57;23.27;;;10.73;;
27985;SDS011;15453;53.692;10.168;2023-02-08T15:12:27;22.65;;;11.90;;
27985;SDS011;15453;53.692;10.168;2023-02-08T15:14:54;22.40;;;11.77;;
27985;SDS011;15453;53.692;10.168;2023-02-08T15:17:32;26.45;;;12.65;;
27985;SDS011;15453;53.692;10.168;2023-02-08T15:19:59;25.85;;;12.38;;
27985;SDS011;15453;53.692;10.168;2023-02-08T15:22:30;27.50;;;12.82;;
27985;SDS011;15453;53.692;10.168;2023-02-08T15:25:09;22.67;;;12.45;;
27985;SDS011;15453;53.692;10.168;2023-02-08T15:27:45;26.95;;;12.50;;
27985;SDS011;15453;53.692;10.168;2023-02-08T15:30:21;24.20;;;12.38;;
27985;SDS011;15453;53.692;10.168;2023-02-08T15:32:46;29.35;;;13.65;;
27985;SDS011;15453;53.692;10.168;2023-02-08T15:35:12;25.83;;;13.02;;
27985;SDS011;15453;53.692;10.168;2023-02-08T15:37:42;24.85;;;12.93;;
27985;SDS011;15453;53.692;10.168;2023-02-08T15:40:19;24.88;;;13.48;;
27985;SDS011;15453;53.692;10.168;2023-02-08T15:43:12;24.85;;;13.40;;
27985;SDS011;15453;53.692;10.168;2023-02-08T15:45:37;24.08;;;12.85;;
27985;SDS011;15453;53.692;10.168;2023-02-08T15:48:04;25.25;;;14.10;;
27985;SDS011;15453;53.692;10.168;2023-02-08T15:50:30;28.52;;;14.07;;
27985;SDS011;15453;53.692;10.168;2023-02-08T15:52:59;27.88;;;14.27;;
27985;SDS011;15453;53.692;10.168;2023-02-08T15:55:27;27.75;;;14.27;;
27985;SDS011;15453;53.692;10.168;2023-02-08T15:57:57;29.80;;;14.95;;
27985;SDS011;15453;53.692;10.168;2023-02-08T16:00:28;30.17;;;14.85;;
27985;SDS011;15453;53.692;10.168;2023-02-08T16:02:59;24.50;;;13.13;;
27985;SDS011;15453;53.692;10.168;2023-02-08T16:05:29;29.75;;;14.20;;
27985;SDS011;15453;53.692;10.168;2023-02-08T16:07:56;24.25;;;13.50;;
27985;SDS011;15453;53.692;10.168;2023-02-08T16:12:57;25.55;;;13.40;;
27985;SDS011;15453;53.692;10.168;2023-02-08T16:15:44;26.50;;;13.63;;
27985;SDS011;15453;53.692;10.168;2023-02-08T16:21:25;21.30;;;11.68;;
27985;SDS011;15453;53.692;10.168;2023-02-08T16:23:51;22.30;;;11.63;;
27985;SDS011;15453;53.692;10.168;2023-02-08T16:26:24;24.95;;;11.88;;
27985;SDS011;15453;53.692;10.168;2023-02-08T16:29:01;24.27;;;11.88;;
27985;SDS011;15453;53.692;10.168;2023-02-08T16:31:29;18.88;;;10.30;;
27985;SDS011;15453;53.692;10.168;2023-02-08T16:36:48;23.63;;;10.95;;
27985;SDS011;15453;53.692;10.168;2023-02-08T16:46:55;23.52;;;12.65;;
27985;SDS011;15453;53.692;10.168;2023-02-08T16:49:21;25.83;;;12.68;;
27985;SDS011;15453;53.692;10.168;2023-02-08T16:51:46;24.52;;;12.77;;
27985;SDS011;15453;53.692;10.168;2023-02-08T16:54:16;30.17;;;14.00;;